Aérodrome :
LOGIN :

S'inscrire | Disclaimer

   EN    FR    IT 

 










Légende :    VFR   VFR Marginal   IFR   IFR Intensif   IFR Très Intensif
Visi : 
Plafond : 
>= 8 km
>= 3000ft
5 à 8 km
1000 à 3000 ft
1500m à 5 km
500 à 1000 ft
800 à 1500m
200 à 500 ft
< 800m
< 200 ft
Symboles :   Orages  Brouillard  Fortes neiges  Fortes précipitations  Vent > 20 kt
SIGMETs :   Divers  Orages  Givrage  Turbulence  Onde Orograph.  Cendres Volcan.







- Altitude de l'aérodrome : 170 ft
- Code IATA : BGO


ENBR - Bergen , Flesland

DERNIER METAR :
  • 171120Z 15012KT 9999 FEW020 SCT028 BKN045 01/M04 Q1011 TEMPO 16020G30KT 1500 SHSN VV006 RMK WIND 1200FT 14020KT

METARs EXPIRÉS :
  • 171050Z 14011KT 9999 FEW020 SCT040 BKN050 00/M04 Q1011 TEMPO 16020G30KT 1500 SHSN VV006 RMK WIND 1200FT 14019KT
  • 171020Z 14006KT 9999 FEW020 SCT030 BKN040 M00/M05 Q1012 TEMPO 1500 SHSN VV006 RMK WIND 1200FT 14018KT
  • 170950Z 14004KT 9999 VCSH FEW015 SCT020 BKN040 M01/M04 Q1012 TEMPO 1500 SHSN VV006 RMK WIND 1200FT 13016KT
  • 170920Z 15006KT 9999 VCSH FEW010 SCT020 BKN040 M01/M04 Q1012 RESHSN TEMPO 1500 SHSN VV006 RMK WIND 1200FT 14017KT
  • 170850Z 13011KT 9999 3500N SHSN VV010 M01/M04 Q1012 TEMPO 1500 SHSN VV006 RMK WIND 1200FT 14019KT

AMD TAF ENBR
Valide du 17 à 09h jusqu'au 18 à 06h UTC


1709/1806 14010KT 9999 SCT020 BKN040
TEMPO 1709/1711 2000 SHSN VV010
BECMG 1711/1713 16020G30KT
BECMG 1714/1716 BKN012
TEMPO 1716/1724 3000 RASN BR BKN008
BECMG 1721/1723 VRB05KT
BECMG 1800/1802 SCT030
Pas de NOTAMs connus pour ce terrain.



MET'MAP, la Météo Aéronautique d'un coup d'oeil ! - Copyright ORBIFLY Décembre 2007 - Disclaimer

ORBIFLY MET'MAP TEAM :

Programmation & Développement : Alexandra Zaïnal
Conception & Développement : Baudouin d'Aumeries
Co-Programmation & Développement : Marc-Olivier Méhu
Soutien technique & logistique : Manuel Goepfert

Contact : metmap@orbifly.com




SOURCES & CREDITS :

   NOAA